KMQE

East Milton Airport

Massachusetts, USA
METAR KMQE 160956Z AUTO 26012KT M08/M11 A2979 RMK AO1 SLP110 T10781106
Observed Flight Rules
Dec-16 @ 09:56 UTC (46 minutes ago)
Wind
260° at 12 knots
Temperatures Readings
Current -8°C / 18°F
Dewpoint -11°C / 12°F
Humidity 79%
Altimeter 29.79" Hg
Pressure 1011 hPa
Elevation 199
METAR KMQE 160956Z AUTO 26012KT M08/M11 A2979 RMK AO1 SLP110 T10781106
Observed Flight Rules
Dec-16 @ 09:56 UTC
(46 minutes ago)
Wind
260° at 12 knots
Temperature Dewpoint
-8°C / 18°F -11°C / 12°F
Humidity Altimeter Pressure
79% 29.79" Hg 1011 hPa